KETN/ETN METAR and TAF weather

Enter ICAO airport designator
Station Type Date Time Source
KETN METAR 2021/09/16 10:15 UTC NOAA

KETN 161015Z AUTO 00000KT 10SM CLR 15/15 A2994 RMK AO2 T01550151


Station Type Date Time Source
KETN Decoded METAR 2021/09/16 10:15 UTC NOAA

Station name not available
Sep 16, 2021 - 06:15 AM EDT / 2021.09.16 1015 UTC
Wind: Calm:0
Visibility: 10 mile(s):0
Sky conditions: clear
Temperature: 59.9 F (15.5 C)
Dew Point: 59.2 F (15.1 C)
Relative Humidity: 97%
Pressure (altimeter): 29.94 in. Hg (1013 hPa)
ob: KETN 161015Z AUTO 00000KT 10SM CLR 15/15 A2994 RMK AO2 T01550151
cycle: 10

Station Type Date Time Source
KETN TAF UTC NOAA

Error!

Example: see airport list